createdAt,value
2018-07-14T00:00:06.445Z,99.90
2018-07-14T00:02:34.714Z,99.90
2018-07-14T00:05:05.190Z,99.90
2018-07-14T00:10:04.019Z,99.90
2018-07-14T00:15:09.083Z,99.90
2018-07-14T00:17:40.387Z,99.90
2018-07-14T00:20:09.309Z,99.90
2018-07-14T00:22:39.616Z,99.90
2018-07-14T00:25:08.884Z,99.90
2018-07-14T00:27:38.819Z,99.90
2018-07-14T00:30:09.610Z,99.90
2018-07-14T00:32:38.090Z,99.90
2018-07-14T00:35:06.351Z,99.90
2018-07-14T00:37:36.100Z,99.90
2018-07-14T00:40:06.070Z,99.90
2018-07-14T00:42:35.485Z,99.90
2018-07-14T00:45:06.577Z,99.90
2018-07-14T00:47:35.574Z,99.90
2018-07-14T00:50:04.465Z,99.90
2018-07-14T00:52:33.602Z,99.90
2018-07-14T00:55:02.325Z,99.90
2018-07-14T00:57:31.083Z,99.90
2018-07-14T00:59:59.510Z,99.90
2018-07-14T01:02:28.360Z,99.90
2018-07-14T01:04:56.945Z,99.90
2018-07-14T01:07:25.674Z,99.90
2018-07-14T01:09:54.276Z,99.90
2018-07-14T01:12:22.815Z,99.90
2018-07-14T01:14:51.187Z,99.90
2018-07-14T01:17:19.862Z,99.90
2018-07-14T01:19:49.118Z,99.90
2018-07-14T01:22:17.794Z,99.90
2018-07-14T01:24:46.673Z,99.90
2018-07-14T01:27:15.783Z,99.90
2018-07-14T01:32:13.416Z,99.90
2018-07-14T01:34:41.828Z,99.90
2018-07-14T01:37:10.106Z,99.90
2018-07-14T01:39:38.383Z,99.90
2018-07-14T01:42:06.739Z,99.90
2018-07-14T01:44:35.002Z,99.90
2018-07-14T01:47:03.278Z,99.90
2018-07-14T01:49:31.607Z,99.90
2018-07-14T01:52:00.074Z,99.90
2018-07-14T01:54:28.411Z,99.90
2018-07-14T01:56:57.632Z,99.90
2018-07-14T01:59:26.079Z,99.90
2018-07-14T02:01:54.395Z,99.90
2018-07-14T02:04:22.986Z,99.90
2018-07-14T02:06:51.556Z,99.90
2018-07-14T02:09:20.356Z,99.90
2018-07-14T02:11:49.447Z,99.90
2018-07-14T02:14:18.636Z,99.90
2018-07-14T02:16:47.232Z,99.90
2018-07-14T02:19:15.808Z,99.90
2018-07-14T02:21:44.662Z,99.90
2018-07-14T02:24:13.277Z,99.90
2018-07-14T02:26:42.489Z,99.90
2018-07-14T02:29:11.159Z,99.90
2018-07-14T02:31:40.209Z,99.90
2018-07-14T02:34:08.730Z,99.90
2018-07-14T02:36:37.299Z,99.90
2018-07-14T02:39:06.765Z,99.90
2018-07-14T02:41:35.165Z,99.90
2018-07-14T02:44:05.172Z,99.90
2018-07-14T02:46:34.138Z,99.90
2018-07-14T02:49:03.941Z,99.90
2018-07-14T02:51:32.975Z,99.90
2018-07-14T02:54:02.404Z,99.90
2018-07-14T02:56:30.734Z,99.90
2018-07-14T02:58:59.321Z,99.90
2018-07-14T03:01:28.209Z,99.90
2018-07-14T03:03:56.920Z,99.90
2018-07-14T03:06:25.284Z,99.90
2018-07-14T03:08:55.018Z,99.90
2018-07-14T03:11:23.819Z,99.90
2018-07-14T03:13:52.570Z,99.90
2018-07-14T03:16:21.103Z,99.90
2018-07-14T03:18:49.859Z,99.90
2018-07-14T03:21:18.437Z,99.90
2018-07-14T03:23:46.716Z,99.90
2018-07-14T03:26:15.502Z,99.90
2018-07-14T03:28:43.894Z,99.90
2018-07-14T03:31:12.614Z,99.90
2018-07-14T03:33:41.121Z,99.90
2018-07-14T03:36:10.110Z,99.90
2018-07-14T03:38:38.666Z,99.90
2018-07-14T03:41:07.252Z,99.90
2018-07-14T03:43:36.377Z,99.90
2018-07-14T03:46:05.218Z,99.90
2018-07-14T03:48:35.887Z,99.90
2018-07-14T03:51:05.894Z,99.90
2018-07-14T03:53:34.730Z,99.90
2018-07-14T03:56:04.706Z,99.90
2018-07-14T03:58:34.674Z,99.90
2018-07-14T04:01:03.650Z,99.90
2018-07-14T04:03:32.740Z,99.90
2018-07-14T04:06:02.090Z,99.90
2018-07-14T04:08:30.772Z,99.90
2018-07-14T04:13:27.665Z,99.90
2018-07-14T04:15:56.598Z,99.90
2018-07-14T04:18:25.847Z,99.90
2018-07-14T04:20:54.382Z,99.90
2018-07-14T04:23:24.413Z,99.90
2018-07-14T04:25:52.671Z,99.90
2018-07-14T04:30:48.980Z,99.90
2018-07-14T04:33:18.301Z,99.90
2018-07-14T04:35:47.120Z,99.90
2018-07-14T04:38:16.554Z,99.90
2018-07-14T04:40:46.011Z,99.90
2018-07-14T04:45:43.361Z,99.90
2018-07-14T04:48:12.292Z,99.90
2018-07-14T04:50:41.293Z,99.90
2018-07-14T04:53:10.074Z,99.90
2018-07-14T04:55:40.673Z,99.90
2018-07-14T04:58:09.324Z,99.90
2018-07-14T05:00:38.245Z,99.90
2018-07-14T05:03:08.471Z,99.90
2018-07-14T05:05:38.209Z,99.90
2018-07-14T05:08:06.589Z,99.90
2018-07-14T05:10:35.817Z,99.90
2018-07-14T05:13:04.758Z,99.90
2018-07-14T05:15:34.136Z,99.90
2018-07-14T05:18:04.340Z,99.90
2018-07-14T05:20:34.052Z,99.90
2018-07-14T05:23:03.135Z,99.90
2018-07-14T05:25:32.173Z,99.90
2018-07-14T05:28:01.412Z,99.90
2018-07-14T05:30:30.262Z,99.90
2018-07-14T05:32:58.881Z,99.90
2018-07-14T05:35:34.442Z,99.90
2018-07-14T05:38:03.123Z,99.90
2018-07-14T05:40:32.781Z,99.90
2018-07-14T05:43:02.383Z,99.90
2018-07-14T05:45:31.319Z,99.90
2018-07-14T05:48:00.286Z,99.90
2018-07-14T05:50:29.849Z,99.90
2018-07-14T05:52:58.711Z,99.90
2018-07-14T05:55:27.229Z,99.90
2018-07-14T05:57:55.498Z,99.90
2018-07-14T06:00:26.669Z,99.90
2018-07-14T06:02:55.129Z,99.90
2018-07-14T06:07:52.537Z,99.90
2018-07-14T06:10:22.081Z,99.90
2018-07-14T06:12:50.414Z,99.90
2018-07-14T06:15:18.873Z,99.90
2018-07-14T06:17:47.187Z,99.90
2018-07-14T06:20:15.477Z,99.90
2018-07-14T06:22:43.823Z,99.90
2018-07-14T06:25:12.183Z,99.90
2018-07-14T06:30:11.588Z,99.90
2018-07-14T06:32:40.336Z,99.90
2018-07-14T06:35:08.606Z,99.90
2018-07-14T06:37:37.371Z,99.90
2018-07-14T06:40:05.954Z,99.90
2018-07-14T06:42:34.860Z,99.90
2018-07-14T06:45:03.254Z,99.90
2018-07-14T06:47:31.528Z,99.90
2018-07-14T06:49:59.907Z,99.90
2018-07-14T06:52:28.560Z,99.90
2018-07-14T06:54:59.056Z,99.90
2018-07-14T06:57:27.840Z,99.90
2018-07-14T06:59:56.278Z,99.90
2018-07-14T07:02:24.647Z,99.90
2018-07-14T07:04:52.926Z,99.90
2018-07-14T07:07:21.408Z,99.90
2018-07-14T07:09:49.744Z,99.90
2018-07-14T07:12:18.340Z,99.90
2018-07-14T07:17:14.819Z,99.90
2018-07-14T07:19:43.954Z,99.90
2018-07-14T07:22:12.482Z,99.90
2018-07-14T07:24:40.865Z,99.90
2018-07-14T07:27:09.382Z,99.90
2018-07-14T07:29:38.636Z,99.90
2018-07-14T07:32:07.964Z,99.90
2018-07-14T07:34:37.064Z,99.90
2018-07-14T07:37:05.678Z,99.90
2018-07-14T07:39:33.968Z,99.90
2018-07-14T07:42:02.270Z,99.90
2018-07-14T07:44:30.574Z,99.90
2018-07-14T07:46:58.850Z,99.90
2018-07-14T07:49:27.157Z,99.90
2018-07-14T07:51:57.023Z,99.90
2018-07-14T07:54:26.338Z,99.90
2018-07-14T07:56:55.148Z,99.90
2018-07-14T07:59:25.211Z,99.90
2018-07-14T08:01:54.961Z,99.90
2018-07-14T08:04:24.214Z,99.90
2018-07-14T08:06:52.798Z,99.90
2018-07-14T08:09:21.134Z,99.90
2018-07-14T08:11:49.465Z,99.90
2018-07-14T08:14:18.057Z,99.90
2018-07-14T08:16:47.046Z,99.90
2018-07-14T08:19:16.318Z,99.90
2018-07-14T08:21:44.691Z,99.90
2018-07-14T08:24:13.108Z,99.90
2018-07-14T08:26:42.511Z,99.90
2018-07-14T08:29:11.554Z,99.90
2018-07-14T08:31:39.882Z,99.90
2018-07-14T08:34:08.456Z,99.90
2018-07-14T08:36:36.906Z,99.90
2018-07-14T08:39:06.909Z,99.90
2018-07-14T08:41:35.206Z,99.90
2018-07-14T08:44:03.882Z,99.90
2018-07-14T08:49:01.402Z,99.90
2018-07-14T08:51:29.891Z,97.80
2018-07-14T08:53:58.592Z,96.60
2018-07-14T08:56:27.002Z,92.60
2018-07-14T08:58:55.818Z,89.80
2018-07-14T09:01:24.508Z,85.50
2018-07-14T09:03:53.242Z,86.10
2018-07-14T09:06:24.658Z,87.20
2018-07-14T09:08:55.383Z,82.70
2018-07-14T09:11:23.718Z,84.60
2018-07-14T09:13:52.311Z,82.60
2018-07-14T09:18:48.951Z,77.70
2018-07-14T09:21:17.287Z,78.20
2018-07-14T09:23:45.549Z,75.90
2018-07-14T09:26:20.615Z,73.50
2018-07-14T09:28:49.542Z,70.60
2018-07-14T09:31:18.626Z,71.40
2018-07-14T09:33:46.967Z,71.30
2018-07-14T09:36:18.393Z,69.30
2018-07-14T09:38:46.730Z,65.90
2018-07-14T09:41:15.121Z,69.60
2018-07-14T09:43:43.443Z,68.70
2018-07-14T09:46:11.778Z,67.90
2018-07-14T09:48:40.153Z,65.90
2018-07-14T09:51:08.952Z,65.30
2018-07-14T09:53:37.312Z,66.80
2018-07-14T09:56:07.014Z,63.40
2018-07-14T09:58:37.508Z,66.20
2018-07-14T10:01:10.903Z,65.80
2018-07-14T10:03:41.624Z,62.70
2018-07-14T10:06:10.096Z,60.80
2018-07-14T10:08:38.357Z,61.60
2018-07-14T10:11:07.256Z,63.20
2018-07-14T10:13:35.855Z,62.20
2018-07-14T10:16:06.509Z,63.10
2018-07-14T10:18:35.190Z,62.40
2018-07-14T10:21:05.097Z,60.30
2018-07-14T10:28:29.526Z,57.80
2018-07-14T10:30:58.606Z,58.70
2018-07-14T10:33:27.603Z,57.90
2018-07-14T10:35:59.989Z,57.70
2018-07-14T10:38:29.163Z,57.10
2018-07-14T10:41:00.873Z,57.60
2018-07-14T10:46:07.020Z,57.20
2018-07-14T10:48:37.330Z,57.20
2018-07-14T10:51:06.289Z,57.30
2018-07-14T10:53:34.731Z,57.50
2018-07-14T10:56:03.023Z,59.80
2018-07-14T10:58:31.309Z,57.70
2018-07-14T11:00:59.706Z,58.40
2018-07-14T11:03:27.971Z,57.50
2018-07-14T11:05:57.273Z,60.80
2018-07-14T11:08:26.314Z,60.20
2018-07-14T11:10:55.161Z,62.10
2018-07-14T11:13:23.450Z,63.40
2018-07-14T11:15:51.976Z,64.60
2018-07-14T11:18:20.511Z,66.50
2018-07-14T11:20:48.807Z,64.30
2018-07-14T11:23:17.157Z,65.00
2018-07-14T11:25:46.177Z,65.50
2018-07-14T11:28:14.470Z,65.40
2018-07-14T11:30:45.182Z,68.50
2018-07-14T11:33:13.834Z,68.70
2018-07-14T11:35:42.478Z,68.00
2018-07-14T11:38:10.936Z,69.70
2018-07-14T11:40:39.352Z,67.30
2018-07-14T11:43:08.037Z,69.80
2018-07-14T11:45:36.354Z,71.30
2018-07-14T11:48:04.784Z,68.60
2018-07-14T11:50:33.134Z,67.30
2018-07-14T11:53:01.604Z,66.80
2018-07-14T11:55:30.081Z,67.20
2018-07-14T11:57:58.518Z,68.70
2018-07-14T12:00:27.698Z,69.20
2018-07-14T12:02:56.543Z,70.00
2018-07-14T12:05:25.097Z,70.10
2018-07-14T12:07:53.476Z,69.30
2018-07-14T12:10:22.453Z,71.00
2018-07-14T12:12:51.155Z,70.20
2018-07-14T12:15:19.548Z,70.50
2018-07-14T12:17:48.111Z,75.30
2018-07-14T12:20:16.789Z,71.60
2018-07-14T12:22:45.158Z,68.70
2018-07-14T12:25:13.724Z,70.70
2018-07-14T12:27:42.102Z,71.10
2018-07-14T12:30:10.472Z,72.10
2018-07-14T12:32:38.757Z,72.30
2018-07-14T12:35:07.406Z,68.60
2018-07-14T12:37:35.828Z,69.10
2018-07-14T12:40:04.730Z,69.40
2018-07-14T12:42:33.041Z,69.60
2018-07-14T12:45:01.374Z,70.70
2018-07-14T12:47:29.758Z,69.00
2018-07-14T12:49:58.182Z,69.90
2018-07-14T12:52:27.306Z,70.30
2018-07-14T12:54:55.982Z,70.50
2018-07-14T12:57:24.429Z,71.10
2018-07-14T12:59:53.045Z,72.10
2018-07-14T13:02:21.365Z,71.40
2018-07-14T13:04:49.797Z,68.30
2018-07-14T13:07:18.114Z,68.80
2018-07-14T13:09:46.409Z,69.20
2018-07-14T13:12:14.834Z,69.20
2018-07-14T13:14:43.352Z,70.10
2018-07-14T13:17:11.652Z,69.50
2018-07-14T13:19:40.173Z,70.10
2018-07-14T13:22:08.581Z,71.90
2018-07-14T13:24:36.882Z,72.30
2018-07-14T13:27:05.706Z,70.50
2018-07-14T13:29:33.982Z,70.50
2018-07-14T13:32:02.279Z,71.70
2018-07-14T13:34:30.575Z,68.50
2018-07-14T13:36:58.854Z,70.40
2018-07-14T13:39:27.704Z,71.10
2018-07-14T13:41:56.211Z,69.60
2018-07-14T13:44:24.786Z,70.70
2018-07-14T13:46:53.152Z,68.60
2018-07-14T13:49:21.990Z,68.40
2018-07-14T13:54:18.406Z,67.20
2018-07-14T13:56:46.686Z,66.60
2018-07-14T13:59:14.979Z,67.90
2018-07-14T14:01:43.442Z,68.10
2018-07-14T14:04:11.781Z,68.10
2018-07-14T14:06:40.047Z,68.10
2018-07-14T14:09:08.896Z,68.60
2018-07-14T14:11:37.473Z,68.80
2018-07-14T14:14:07.105Z,67.40
2018-07-14T14:16:36.174Z,69.20
2018-07-14T14:19:06.254Z,68.40
2018-07-14T14:21:35.374Z,68.60
2018-07-14T14:24:04.826Z,68.00
2018-07-14T14:26:33.165Z,69.30
2018-07-14T14:29:01.619Z,68.90
2018-07-14T14:31:30.156Z,68.70
2018-07-14T14:33:59.192Z,68.50
2018-07-14T14:36:28.003Z,69.20
2018-07-14T14:38:56.311Z,67.80
2018-07-14T14:41:25.157Z,67.80
2018-07-14T14:43:53.792Z,66.70
2018-07-14T14:48:50.607Z,66.50
2018-07-14T14:51:19.311Z,67.40
2018-07-14T14:53:48.545Z,68.60
2018-07-14T14:56:16.923Z,69.20
2018-07-14T14:58:45.226Z,69.30
2018-07-14T15:01:13.512Z,69.50
2018-07-14T15:03:41.829Z,69.30
2018-07-14T15:06:10.198Z,70.50
2018-07-14T15:08:38.840Z,71.20
2018-07-14T15:11:07.161Z,70.50
2018-07-14T15:13:35.561Z,67.40
2018-07-14T15:16:03.856Z,68.20
2018-07-14T15:18:32.505Z,66.80
2018-07-14T15:21:00.878Z,67.00
2018-07-14T15:23:29.461Z,67.60
2018-07-14T15:25:58.047Z,66.60
2018-07-14T15:28:27.124Z,68.10
2018-07-14T15:30:55.519Z,67.00
2018-07-14T15:33:26.280Z,67.10
2018-07-14T15:35:54.507Z,67.50
2018-07-14T15:38:22.826Z,67.20
2018-07-14T15:40:51.467Z,68.10
2018-07-14T15:43:20.442Z,67.10
2018-07-14T15:45:50.128Z,67.90
2018-07-14T15:48:19.284Z,67.70
2018-07-14T15:50:49.212Z,67.10
2018-07-14T15:53:17.713Z,68.30
2018-07-14T15:55:46.045Z,69.60
2018-07-14T15:58:16.289Z,68.90
2018-07-14T16:00:44.896Z,70.00
2018-07-14T16:03:13.443Z,68.90
2018-07-14T16:05:41.881Z,68.70
2018-07-14T16:08:10.249Z,68.60
2018-07-14T16:10:38.542Z,67.30
2018-07-14T16:13:06.923Z,68.40
2018-07-14T16:15:35.260Z,69.20
2018-07-14T16:18:04.108Z,67.00
2018-07-14T16:20:32.620Z,67.70
2018-07-14T16:23:01.102Z,66.70
2018-07-14T16:25:29.395Z,68.90
2018-07-14T16:27:57.679Z,68.90
2018-07-14T16:32:54.146Z,68.50
2018-07-14T16:35:22.447Z,68.40
2018-07-14T16:37:50.830Z,69.10
2018-07-14T16:40:19.123Z,69.20
2018-07-14T16:42:47.679Z,70.70
2018-07-14T16:45:16.266Z,70.40
2018-07-14T16:47:44.558Z,70.10
2018-07-14T16:50:12.897Z,70.70
2018-07-14T16:52:41.830Z,71.00
2018-07-14T16:55:10.176Z,70.10
2018-07-14T16:57:38.766Z,69.50
2018-07-14T17:00:07.213Z,70.00
2018-07-14T17:02:36.306Z,70.60
2018-07-14T17:05:05.058Z,70.90
2018-07-14T17:07:33.494Z,71.10
2018-07-14T17:12:31.837Z,71.00
2018-07-14T17:15:00.184Z,70.90
2018-07-14T17:17:28.458Z,71.50
2018-07-14T17:19:56.787Z,70.20
2018-07-14T17:22:25.140Z,70.00
2018-07-14T17:24:53.682Z,71.80
2018-07-14T17:27:22.003Z,71.70
2018-07-14T17:29:50.481Z,71.30
2018-07-14T17:32:18.950Z,72.10
2018-07-14T17:34:47.366Z,71.50
2018-07-14T17:37:15.672Z,71.30
2018-07-14T17:39:44.100Z,71.70
2018-07-14T17:42:12.473Z,72.00
2018-07-14T17:44:41.551Z,71.70
2018-07-14T17:47:09.831Z,72.00
2018-07-14T17:52:06.799Z,70.70
2018-07-14T17:54:35.209Z,71.30
2018-07-14T17:57:03.504Z,71.40
2018-07-14T17:59:31.868Z,70.30
2018-07-14T18:02:00.132Z,69.10
2018-07-14T18:04:28.514Z,70.10
2018-07-14T18:06:57.316Z,69.30
2018-07-14T18:09:25.615Z,68.60
2018-07-14T18:11:54.424Z,69.70
2018-07-14T18:14:22.749Z,70.10
2018-07-14T18:16:51.017Z,71.10
2018-07-14T18:19:19.400Z,71.00
2018-07-14T18:21:47.684Z,72.70
2018-07-14T18:24:16.013Z,73.80
2018-07-14T18:26:44.258Z,73.80
2018-07-14T18:29:12.551Z,74.40
2018-07-14T18:31:41.258Z,74.70
2018-07-14T18:34:09.575Z,74.90
2018-07-14T18:36:37.839Z,74.40
2018-07-14T18:39:07.635Z,75.00
2018-07-14T18:41:35.995Z,75.00
2018-07-14T18:44:04.361Z,75.60
2018-07-14T18:46:32.758Z,76.30
2018-07-14T18:49:01.058Z,76.30
2018-07-14T18:51:29.359Z,76.40
2018-07-14T18:53:57.759Z,76.00
2018-07-14T18:56:27.036Z,77.10
2018-07-14T18:58:55.560Z,77.30
2018-07-14T19:01:23.893Z,77.50
2018-07-14T19:03:52.235Z,77.40
2018-07-14T19:06:20.522Z,77.10
2018-07-14T19:08:48.855Z,77.70
2018-07-14T19:11:17.135Z,77.30
2018-07-14T19:13:45.384Z,77.40
2018-07-14T19:16:13.791Z,77.80
2018-07-14T19:18:42.140Z,79.00
2018-07-14T19:21:10.589Z,79.30
2018-07-14T19:23:38.934Z,79.90
2018-07-14T19:26:07.430Z,80.50
2018-07-14T19:28:35.594Z,81.70
2018-07-14T19:31:04.558Z,82.50
2018-07-14T19:33:32.848Z,83.40
2018-07-14T19:36:01.163Z,84.20
2018-07-14T19:38:30.051Z,83.80
2018-07-14T19:41:00.234Z,83.20
2018-07-14T19:43:28.643Z,82.40
2018-07-14T19:45:56.974Z,81.90
2018-07-14T19:48:25.711Z,82.00
2018-07-14T19:50:54.132Z,81.50
2018-07-14T19:53:23.060Z,81.80
2018-07-14T19:55:51.667Z,82.40
2018-07-14T19:58:24.269Z,83.40
2018-07-14T20:00:53.270Z,84.40
2018-07-14T20:03:23.897Z,87.70
2018-07-14T20:05:55.274Z,90.00
2018-07-14T20:08:24.808Z,91.20
2018-07-14T20:10:53.957Z,93.60
2018-07-14T20:13:25.306Z,94.60
2018-07-14T20:15:55.662Z,95.70
2018-07-14T20:18:29.151Z,98.00
2018-07-14T20:20:57.634Z,98.20
2018-07-14T20:23:26.893Z,99.00
2018-07-14T20:25:57.445Z,99.70
2018-07-14T20:28:27.000Z,99.90
2018-07-14T20:30:55.541Z,99.90
2018-07-14T20:33:25.134Z,99.90
2018-07-14T20:35:55.454Z,99.90
2018-07-14T20:41:17.240Z,99.90
2018-07-14T20:43:46.662Z,99.90
2018-07-14T20:46:16.675Z,99.90
2018-07-14T20:51:14.094Z,99.90
2018-07-14T20:53:44.799Z,99.90
2018-07-14T20:56:13.087Z,99.90
2018-07-14T20:58:41.562Z,99.90
2018-07-14T21:01:10.052Z,99.90
2018-07-14T21:03:38.815Z,99.90
2018-07-14T21:06:08.572Z,99.90
2018-07-14T21:08:37.026Z,99.90
2018-07-14T21:11:06.442Z,99.90
2018-07-14T21:13:34.804Z,99.90
2018-07-14T21:16:03.126Z,99.90
2018-07-14T21:18:31.458Z,99.90
2018-07-14T21:20:59.802Z,99.90
2018-07-14T21:23:28.155Z,99.90
2018-07-14T21:25:56.448Z,99.90
2018-07-14T21:28:24.915Z,99.90
2018-07-14T21:30:53.371Z,99.90
2018-07-14T21:33:21.732Z,99.90
2018-07-14T21:35:50.331Z,99.90
2018-07-14T21:38:18.653Z,99.90
2018-07-14T21:40:47.021Z,99.90
2018-07-14T21:43:15.824Z,99.90
2018-07-14T21:50:41.049Z,99.90
2018-07-14T21:53:09.546Z,99.90
2018-07-14T21:55:37.992Z,99.90
2018-07-14T21:58:07.106Z,99.90
2018-07-14T22:00:41.158Z,99.90
2018-07-14T22:03:09.782Z,99.90
2018-07-14T22:05:38.055Z,99.90
2018-07-14T22:08:06.444Z,99.90
2018-07-14T22:10:34.830Z,99.90
2018-07-14T22:13:03.551Z,99.90
2018-07-14T22:15:39.277Z,99.90
2018-07-14T22:18:08.668Z,99.90
2018-07-14T22:20:38.157Z,99.90
2018-07-14T22:23:07.534Z,99.90
2018-07-14T22:25:36.045Z,99.90
2018-07-14T22:28:05.424Z,99.90
2018-07-14T22:30:34.223Z,99.90
2018-07-14T22:33:04.084Z,99.90
2018-07-14T22:35:33.391Z,99.90
2018-07-14T22:38:01.863Z,99.90
2018-07-14T22:40:30.728Z,99.90
2018-07-14T22:45:27.226Z,99.90
2018-07-14T22:47:57.502Z,99.90
2018-07-14T22:50:26.292Z,99.90
2018-07-14T22:52:56.125Z,99.90
2018-07-14T22:55:26.664Z,99.90
2018-07-14T22:57:55.071Z,99.90
2018-07-14T23:00:24.752Z,99.90
2018-07-14T23:02:54.355Z,99.90
2018-07-14T23:05:23.352Z,99.90
2018-07-14T23:07:51.732Z,99.90
2018-07-14T23:10:20.013Z,99.90
2018-07-14T23:12:48.319Z,99.90
2018-07-14T23:15:16.598Z,99.90
2018-07-14T23:17:44.891Z,99.90
2018-07-14T23:20:13.186Z,99.90
2018-07-14T23:22:41.503Z,99.90
2018-07-14T23:25:09.763Z,99.90
2018-07-14T23:27:38.032Z,99.90
2018-07-14T23:32:34.747Z,99.90
2018-07-14T23:35:03.041Z,99.90
2018-07-14T23:37:31.846Z,99.90
2018-07-14T23:40:00.436Z,99.90
2018-07-14T23:42:28.832Z,99.90
2018-07-14T23:44:57.203Z,99.90
2018-07-14T23:47:25.662Z,99.90
2018-07-14T23:49:55.978Z,99.90
2018-07-14T23:52:24.826Z,99.90
2018-07-14T23:54:54.048Z,99.90
2018-07-14T23:57:24.078Z,99.90
2018-07-14T23:59:53.464Z,99.90
